createdAt,value
2023-03-11T00:01:51.627Z,34.83
2023-03-11T00:04:37.274Z,24.80
2023-03-11T00:07:23.100Z,19.05
2023-03-11T00:10:10.780Z,38.50
2023-03-11T00:15:43.072Z,5.47
2023-03-11T00:18:31.373Z,8.80
2023-03-11T00:21:18.053Z,19.30
2023-03-11T00:24:04.199Z,16.50
2023-03-11T00:26:49.951Z,15.63
2023-03-11T00:29:35.699Z,12.95
2023-03-11T00:32:21.275Z,14.13
2023-03-11T00:35:08.236Z,15.48
2023-03-11T00:37:58.995Z,16.33
2023-03-11T00:40:46.221Z,13.88
2023-03-11T00:43:31.733Z,12.63
2023-03-11T00:46:17.281Z,11.75
2023-03-11T00:49:03.058Z,7.93
2023-03-11T00:51:48.730Z,9.70
2023-03-11T00:54:34.262Z,10.98
2023-03-11T00:57:19.714Z,13.35
2023-03-11T01:00:06.825Z,10.93
2023-03-11T01:02:54.692Z,8.88
2023-03-11T01:05:42.016Z,5.85
2023-03-11T01:08:27.484Z,13.07
2023-03-11T01:11:13.461Z,6.75
2023-03-11T01:13:59.090Z,7.22
2023-03-11T01:16:44.366Z,9.45
2023-03-11T01:19:29.613Z,5.55
2023-03-11T01:22:15.302Z,7.20
2023-03-11T01:25:00.928Z,8.80
2023-03-11T01:27:46.546Z,4.75
2023-03-11T01:30:31.804Z,6.88
2023-03-11T01:33:18.724Z,4.57
2023-03-11T01:36:04.513Z,6.05
2023-03-11T01:38:50.176Z,3.72
2023-03-11T01:41:35.677Z,3.60
2023-03-11T01:44:22.314Z,6.35
2023-03-11T01:47:10.973Z,4.55
2023-03-11T01:49:56.967Z,4.38
2023-03-11T01:52:44.788Z,6.07
2023-03-11T01:55:31.678Z,2.75
2023-03-11T01:58:22.649Z,4.10
2023-03-11T02:01:08.282Z,3.63
2023-03-11T02:03:54.713Z,3.70
2023-03-11T02:06:40.658Z,3.67
2023-03-11T02:09:28.232Z,4.35
2023-03-11T02:12:16.875Z,3.28
2023-03-11T02:15:03.750Z,5.50
2023-03-11T02:18:14.969Z,5.32
2023-03-11T02:24:08.468Z,3.13
2023-03-11T02:27:08.642Z,5.57
2023-03-11T02:33:06.612Z,2.45
2023-03-11T02:35:52.634Z,4.22
2023-03-11T02:38:38.686Z,3.13
2023-03-11T02:41:26.899Z,4.82
2023-03-11T02:44:14.690Z,2.97
2023-03-11T02:47:01.016Z,3.75
2023-03-11T02:49:50.993Z,4.20
2023-03-11T02:52:37.268Z,1.85
2023-03-11T02:55:23.492Z,2.78
2023-03-11T02:58:09.230Z,4.03
2023-03-11T03:00:54.786Z,2.78
2023-03-11T03:03:40.307Z,2.88
2023-03-11T03:06:26.504Z,4.15
2023-03-11T03:09:12.149Z,3.92
2023-03-11T03:11:57.664Z,2.70
2023-03-11T03:14:43.572Z,2.42
2023-03-11T03:17:29.729Z,5.30
2023-03-11T03:20:15.791Z,4.68
2023-03-11T03:23:06.778Z,3.17
2023-03-11T03:25:52.594Z,2.20
2023-03-11T03:28:38.464Z,3.60
2023-03-11T03:31:25.841Z,2.70
2023-03-11T03:34:11.561Z,2.97
2023-03-11T03:36:57.132Z,5.75
2023-03-11T03:39:42.590Z,3.10
2023-03-11T03:42:30.344Z,3.60
2023-03-11T03:45:15.852Z,1.38
2023-03-11T03:48:01.902Z,3.00
2023-03-11T03:50:50.786Z,3.00
2023-03-11T03:53:37.338Z,4.40
2023-03-11T03:56:23.263Z,2.78
2023-03-11T03:59:08.724Z,2.72
2023-03-11T04:02:01.070Z,2.00
2023-03-11T04:04:49.257Z,2.45
2023-03-11T04:07:35.990Z,4.53
2023-03-11T04:10:23.400Z,11.75
2023-03-11T04:13:10.139Z,7.38
2023-03-11T04:15:56.913Z,19.00
2023-03-11T04:18:43.098Z,10.73
2023-03-11T04:21:28.773Z,11.25
2023-03-11T04:24:15.170Z,11.80
2023-03-11T04:27:01.580Z,9.68
2023-03-11T04:29:50.608Z,4.60
2023-03-11T04:32:36.535Z,9.00
2023-03-11T04:35:23.356Z,3.30
2023-03-11T04:38:09.241Z,4.05
2023-03-11T04:40:54.608Z,4.65
2023-03-11T04:43:40.092Z,2.75
2023-03-11T04:46:26.316Z,2.00
2023-03-11T04:49:12.033Z,2.03
2023-03-11T04:51:58.176Z,2.70
2023-03-11T04:54:45.570Z,3.55
2023-03-11T04:57:31.935Z,2.40
2023-03-11T05:00:22.436Z,2.60
2023-03-11T05:03:09.755Z,2.30
2023-03-11T05:06:00.261Z,2.80
2023-03-11T05:08:46.088Z,1.35
2023-03-11T05:11:31.944Z,1.80
2023-03-11T05:14:18.024Z,1.48
2023-03-11T05:17:03.628Z,1.95
2023-03-11T05:19:49.605Z,0.35
2023-03-11T05:22:40.665Z,0.95
2023-03-11T05:25:26.701Z,1.55
2023-03-11T05:28:12.832Z,0.82
2023-03-11T05:31:08.803Z,0.93
2023-03-11T05:33:55.400Z,2.00
2023-03-11T05:36:41.420Z,0.85
2023-03-11T05:39:27.301Z,1.10
2023-03-11T05:42:13.244Z,1.73
2023-03-11T05:44:59.078Z,1.88
2023-03-11T05:47:46.081Z,1.70
2023-03-11T05:50:34.331Z,1.65
2023-03-11T05:53:20.823Z,0.80
2023-03-11T05:56:07.026Z,0.90
2023-03-11T05:58:53.369Z,1.30
2023-03-11T06:01:39.519Z,0.88
2023-03-11T06:04:25.625Z,1.20
2023-03-11T06:07:13.150Z,1.63
2023-03-11T06:09:59.148Z,2.25
2023-03-11T06:12:44.647Z,2.22
2023-03-11T06:15:46.124Z,2.15
2023-03-11T06:18:32.091Z,2.58
2023-03-11T06:21:22.383Z,3.33
2023-03-11T06:24:08.256Z,2.60
2023-03-11T06:26:53.898Z,1.17
2023-03-11T06:29:42.118Z,2.83
2023-03-11T06:32:29.816Z,2.90
2023-03-11T06:35:15.448Z,2.90
2023-03-11T06:38:00.997Z,1.98
2023-03-11T06:40:47.544Z,3.13
2023-03-11T06:43:34.794Z,2.88
2023-03-11T06:49:09.978Z,1.77
2023-03-11T06:51:57.938Z,2.45
2023-03-11T06:54:45.490Z,2.88
2023-03-11T06:57:35.649Z,2.72
2023-03-11T07:00:24.754Z,2.85
2023-03-11T07:03:15.222Z,3.53
2023-03-11T07:06:01.216Z,5.80
2023-03-11T07:08:48.594Z,3.15
2023-03-11T07:11:34.299Z,3.35
2023-03-11T07:14:27.404Z,2.58
2023-03-11T07:17:15.537Z,3.20
2023-03-11T07:20:07.507Z,1.85
2023-03-11T07:22:53.293Z,3.55
2023-03-11T07:25:38.809Z,8.57
2023-03-11T07:28:25.084Z,7.25
2023-03-11T07:31:14.442Z,2.70
2023-03-11T07:34:02.647Z,4.22
2023-03-11T07:39:35.320Z,5.07
2023-03-11T07:42:20.868Z,3.67
2023-03-11T07:45:06.929Z,3.40
2023-03-11T07:47:52.549Z,4.53
2023-03-11T07:50:38.180Z,6.00
2023-03-11T07:53:24.625Z,4.18
2023-03-11T07:56:35.369Z,2.47
2023-03-11T07:59:21.579Z,2.15
2023-03-11T08:02:07.479Z,3.05
2023-03-11T08:04:53.450Z,2.20
2023-03-11T08:07:40.647Z,2.95
2023-03-11T08:10:29.167Z,2.83
2023-03-11T08:13:19.949Z,5.88
2023-03-11T08:16:07.464Z,3.63
2023-03-11T08:18:53.739Z,5.07
2023-03-11T08:21:40.493Z,2.88
2023-03-11T08:24:26.033Z,8.93
2023-03-11T08:27:13.119Z,12.13
2023-03-11T08:30:01.800Z,4.47
2023-03-11T08:32:50.110Z,6.20
2023-03-11T08:35:36.588Z,11.02
2023-03-11T08:38:22.961Z,8.07
2023-03-11T08:41:09.303Z,5.40
2023-03-11T08:43:55.169Z,7.70
2023-03-11T08:46:41.021Z,4.20
2023-03-11T08:49:28.586Z,6.95
2023-03-11T08:52:14.289Z,8.55
2023-03-11T08:55:01.341Z,4.00
2023-03-11T08:57:47.178Z,5.38
2023-03-11T09:00:32.677Z,5.57
2023-03-11T09:03:18.503Z,6.38
2023-03-11T09:06:07.000Z,4.22
2023-03-11T09:08:52.949Z,7.30
2023-03-11T09:11:39.785Z,5.22
2023-03-11T09:14:25.766Z,5.43
2023-03-11T09:17:12.400Z,7.40
2023-03-11T09:19:58.739Z,5.93
2023-03-11T09:22:44.699Z,3.88
2023-03-11T09:25:30.251Z,4.60
2023-03-11T09:28:16.282Z,3.85
2023-03-11T09:31:01.920Z,4.20
2023-03-11T09:33:48.070Z,5.40
2023-03-11T09:36:34.391Z,4.00
2023-03-11T09:39:20.785Z,4.72
2023-03-11T09:42:22.290Z,3.20
2023-03-11T09:45:20.414Z,2.35
2023-03-11T09:48:09.041Z,2.60
2023-03-11T09:51:08.815Z,5.18
2023-03-11T09:54:19.574Z,3.97
2023-03-11T09:57:06.925Z,4.03
2023-03-11T09:59:52.856Z,6.00
2023-03-11T10:02:38.779Z,5.35
2023-03-11T10:05:29.256Z,4.82
2023-03-11T10:08:33.532Z,4.47
2023-03-11T10:11:31.395Z,5.63
2023-03-11T10:14:17.074Z,9.98
2023-03-11T10:17:27.859Z,4.28
2023-03-11T10:20:19.759Z,6.50
2023-03-11T10:23:16.283Z,3.55
2023-03-11T10:26:16.123Z,2.92
2023-03-11T10:29:08.141Z,5.93
2023-03-11T10:32:15.780Z,5.82
2023-03-11T10:35:16.948Z,5.07
2023-03-11T10:38:21.297Z,6.97
2023-03-11T10:41:37.956Z,4.95
2023-03-11T10:44:37.514Z,5.15
2023-03-11T10:47:27.336Z,2.70
2023-03-11T10:50:21.829Z,5.43
2023-03-11T10:53:15.715Z,4.22
2023-03-11T10:56:01.798Z,3.85
2023-03-11T10:58:50.497Z,3.20
2023-03-11T11:01:36.385Z,4.05
2023-03-11T11:04:48.836Z,2.95
2023-03-11T11:07:41.163Z,3.90
2023-03-11T11:10:28.612Z,4.00
2023-03-11T11:13:14.704Z,3.08
2023-03-11T11:16:03.397Z,2.13
2023-03-11T11:18:52.168Z,2.97
2023-03-11T11:21:41.542Z,3.67
2023-03-11T13:32:46.077Z,7.15
2023-03-11T13:35:52.536Z,6.53
2023-03-11T13:39:01.261Z,4.05
2023-03-11T13:41:47.837Z,6.70
2023-03-11T13:44:39.089Z,3.53
2023-03-11T13:47:25.955Z,4.82
2023-03-11T13:50:34.200Z,5.68
2023-03-11T13:53:26.223Z,8.38
2023-03-11T13:56:44.326Z,6.95
2023-03-11T13:59:35.131Z,5.72
2023-03-11T14:02:23.482Z,7.60
2023-03-11T14:05:26.978Z,5.03
2023-03-11T14:08:24.062Z,4.60
2023-03-11T14:11:12.862Z,5.05
2023-03-11T14:13:58.743Z,5.22
2023-03-11T14:16:45.654Z,7.18
2023-03-11T14:19:34.314Z,5.65
2023-03-11T14:22:37.508Z,6.57
2023-03-11T14:25:32.339Z,3.40
2023-03-11T14:28:21.980Z,4.18
2023-03-11T14:31:08.165Z,8.77
2023-03-11T14:34:04.993Z,6.10
2023-03-11T14:36:57.591Z,6.55
2023-03-11T14:39:46.352Z,8.63
2023-03-11T14:42:55.154Z,9.10
2023-03-11T14:45:49.490Z,5.35
2023-03-11T14:48:39.981Z,6.70
2023-03-11T14:54:55.560Z,4.68
2023-03-11T14:57:46.610Z,6.18
2023-03-11T15:00:39.189Z,5.65
2023-03-11T15:03:31.949Z,6.07
2023-03-11T15:06:20.411Z,5.80
2023-03-11T15:09:25.588Z,4.30
2023-03-11T15:13:07.207Z,4.38
2023-03-11T15:17:13.353Z,4.90
2023-03-11T15:20:49.230Z,7.97
2023-03-11T15:23:49.980Z,6.63
2023-03-11T15:26:40.568Z,7.18
2023-03-11T15:29:27.056Z,4.20
2023-03-11T15:32:31.741Z,6.90
2023-03-11T15:35:19.406Z,5.10
2023-03-11T15:38:21.015Z,6.30
2023-03-11T15:41:10.187Z,7.93
2023-03-11T15:44:00.451Z,7.28
2023-03-11T15:46:46.688Z,7.28
2023-03-11T15:49:34.592Z,6.05
2023-03-11T15:52:22.066Z,5.10
2023-03-11T15:55:08.292Z,7.20
2023-03-11T15:58:00.489Z,5.28
2023-03-11T16:00:56.133Z,6.35
2023-03-11T16:03:41.851Z,7.43
2023-03-11T16:06:28.997Z,4.05
2023-03-11T16:09:16.771Z,6.90
2023-03-11T16:12:02.993Z,4.30
2023-03-11T16:14:49.660Z,6.65
2023-03-11T16:17:48.906Z,3.05
2023-03-11T16:20:55.423Z,6.80
2023-03-11T16:23:51.145Z,3.58
2023-03-11T16:26:37.984Z,7.22
2023-03-11T16:29:24.531Z,4.55
2023-03-11T16:32:11.785Z,5.85
2023-03-11T16:35:06.291Z,7.10
2023-03-11T16:37:56.035Z,4.68
2023-03-11T16:40:41.995Z,6.45
2023-03-11T16:43:30.180Z,4.20
2023-03-11T16:46:19.209Z,5.85
2023-03-11T16:49:07.797Z,6.43
2023-03-11T16:51:55.145Z,5.57
2023-03-11T16:55:09.322Z,3.42
2023-03-11T16:57:57.720Z,10.70
2023-03-11T17:00:44.765Z,16.55
2023-03-11T17:03:40.974Z,8.20
2023-03-11T17:06:28.156Z,4.40
2023-03-11T17:09:19.174Z,6.32
2023-03-11T17:12:07.071Z,8.00
2023-03-11T17:14:54.186Z,6.47
2023-03-11T17:17:39.948Z,6.38
2023-03-11T17:20:25.865Z,11.18
2023-03-11T17:23:14.229Z,9.02
2023-03-11T17:26:01.794Z,14.15
2023-03-11T17:28:48.144Z,11.65
2023-03-11T17:31:34.229Z,12.75
2023-03-11T17:34:19.839Z,6.03
2023-03-11T17:37:05.486Z,9.52
2023-03-11T17:39:51.753Z,11.45
2023-03-11T17:42:39.854Z,8.55
2023-03-11T17:48:11.889Z,9.23
2023-03-11T17:50:57.770Z,4.72
2023-03-11T17:53:45.990Z,7.50
2023-03-11T17:56:36.859Z,4.82
2023-03-11T17:59:22.786Z,4.97
2023-03-11T18:02:13.482Z,10.70
2023-03-11T18:05:01.927Z,8.52
2023-03-11T18:07:49.396Z,12.80
2023-03-11T18:10:36.887Z,11.70
2023-03-11T18:13:22.459Z,10.43
2023-03-11T18:16:20.456Z,8.25
2023-03-11T18:19:06.244Z,5.82
2023-03-11T18:21:51.758Z,5.45
2023-03-11T18:24:39.099Z,11.35
2023-03-11T18:27:25.052Z,5.43
2023-03-11T18:30:11.495Z,6.47
2023-03-11T18:32:57.640Z,9.63
2023-03-11T18:35:43.968Z,10.32
2023-03-11T18:38:30.186Z,10.88
2023-03-11T18:41:16.269Z,13.02
2023-03-11T18:44:01.935Z,11.30
2023-03-11T18:46:47.912Z,8.63
2023-03-11T18:49:33.314Z,7.68
2023-03-11T18:52:19.828Z,8.25
2023-03-11T18:55:07.280Z,4.82
2023-03-11T18:57:53.940Z,10.60
2023-03-11T19:00:40.456Z,16.35
2023-03-11T19:03:27.521Z,11.15
2023-03-11T19:06:13.688Z,13.45
2023-03-11T19:08:59.498Z,9.98
2023-03-11T19:11:51.412Z,15.70
2023-03-11T19:14:45.709Z,15.77
2023-03-11T19:17:34.725Z,13.82
2023-03-11T19:20:20.238Z,14.52
2023-03-11T19:23:06.714Z,13.98
2023-03-11T19:26:02.422Z,10.55
2023-03-11T19:28:49.313Z,16.45
2023-03-11T19:31:38.755Z,11.82
2023-03-11T19:34:28.521Z,16.45
2023-03-11T19:37:17.362Z,16.33
2023-03-11T19:40:07.877Z,15.60
2023-03-11T19:42:54.657Z,16.42
2023-03-11T19:45:43.144Z,17.25
2023-03-11T19:48:33.394Z,20.90
2023-03-11T19:51:21.718Z,12.05
2023-03-11T19:54:11.178Z,13.32
2023-03-11T19:56:57.285Z,16.10
2023-03-11T19:59:44.075Z,15.02
2023-03-11T20:02:30.260Z,12.00
2023-03-11T20:05:16.245Z,17.67
2023-03-11T20:08:02.638Z,12.45
2023-03-11T20:10:50.233Z,17.75
2023-03-11T20:13:36.707Z,17.83
2023-03-11T20:16:23.130Z,20.25
2023-03-11T20:19:09.071Z,14.77
2023-03-11T20:21:55.816Z,16.73
2023-03-11T20:24:43.719Z,15.60
2023-03-11T20:27:29.887Z,17.77
2023-03-11T20:30:16.189Z,13.18
2023-03-11T20:33:01.851Z,8.63
2023-03-11T20:35:48.176Z,13.60
2023-03-11T20:38:33.933Z,11.10
2023-03-11T20:41:24.030Z,12.88
2023-03-11T20:44:12.643Z,10.70
2023-03-11T20:46:58.574Z,4.97
2023-03-11T20:49:45.035Z,9.68
2023-03-11T20:52:36.010Z,8.93
2023-03-11T20:55:22.975Z,8.88
2023-03-11T20:58:10.091Z,12.10
2023-03-11T21:00:56.559Z,9.80
2023-03-11T21:03:43.410Z,11.10
2023-03-11T21:06:37.005Z,11.32
2023-03-11T21:09:23.536Z,11.23
2023-03-11T21:12:09.379Z,13.85
2023-03-11T21:14:56.659Z,13.07
2023-03-11T21:17:42.736Z,14.50
2023-03-11T21:20:29.043Z,15.75
2023-03-11T21:23:14.673Z,12.35
2023-03-11T21:26:01.545Z,11.63
2023-03-11T21:28:47.330Z,12.30
2023-03-11T21:31:33.712Z,18.00
2023-03-11T21:34:19.712Z,13.63
2023-03-11T21:37:06.179Z,12.40
2023-03-11T21:39:52.215Z,12.85
2023-03-11T21:42:38.716Z,12.95
2023-03-11T21:45:24.550Z,14.82
2023-03-11T21:48:14.192Z,16.73
2023-03-11T21:51:00.728Z,11.10
2023-03-11T21:53:48.090Z,14.15
2023-03-11T21:56:35.424Z,11.63
2023-03-11T21:59:25.411Z,12.23
2023-03-11T22:02:16.486Z,10.85
2023-03-11T22:05:02.940Z,12.90
2023-03-11T22:07:48.602Z,12.98
2023-03-11T22:10:34.689Z,12.70
2023-03-11T22:13:20.999Z,13.88
2023-03-11T22:16:07.386Z,12.13
2023-03-11T22:18:53.636Z,11.98
2023-03-11T22:21:39.407Z,11.95
2023-03-11T22:24:24.867Z,10.40
2023-03-11T22:27:10.425Z,13.52
2023-03-11T22:29:56.038Z,18.08
2023-03-11T22:32:42.007Z,14.27
2023-03-11T22:35:27.641Z,18.45
2023-03-11T22:38:12.941Z,14.60
2023-03-11T22:41:00.482Z,15.20
2023-03-11T22:43:47.045Z,13.75
2023-03-11T22:46:32.570Z,17.08
2023-03-11T22:49:18.313Z,15.45
2023-03-11T22:52:03.905Z,15.10
2023-03-11T22:54:49.783Z,15.40
2023-03-11T22:57:38.965Z,15.63
2023-03-11T23:00:25.079Z,12.10
2023-03-11T23:03:11.856Z,18.33
2023-03-11T23:06:02.210Z,21.02
2023-03-11T23:08:48.093Z,17.38
2023-03-11T23:11:33.419Z,14.38
2023-03-11T23:14:21.919Z,17.80
2023-03-11T23:17:09.681Z,21.58
2023-03-11T23:30:17.578Z,15.60
2023-03-11T23:33:03.488Z,13.90
2023-03-11T23:35:49.309Z,31.33
2023-03-11T23:38:35.794Z,28.45
2023-03-11T23:41:23.904Z,23.08
2023-03-11T23:44:09.575Z,17.55
2023-03-11T23:46:55.144Z,13.70
2023-03-11T23:49:41.107Z,17.08
2023-03-11T23:52:26.587Z,14.60
2023-03-11T23:55:12.598Z,20.60
2023-03-11T23:57:58.179Z,17.45
